Time;durP1;ratioP1;P1;durP2;ratioP2;P2;SDS_P1;SDS_P2;PMS_P1;PMS_P2;Temp;Humidity;BMP_temperature;BMP_pressure;BME280_temperature;BME280_humidity;BME280_pressure;Samples;Min_cycle;Max_cycle;Signal;HPM_P1;HPM_P2
2021/06/10 00:00:30;;;;;;;9.50;7.55;;;;;;;;;;5097292;28;20067;-59
2021/06/10 00:02:56;;;;;;;8.88;7.70;;;;;;;;;;5098036;28;20032;-59
2021/06/10 00:05:22;;;;;;;10.18;8.40;;;;;;;;;;5097441;28;20354;-59
2021/06/10 00:07:49;;;;;;;9.02;8.02;;;;;;;;;;5097127;28;20030;-60
2021/06/10 00:10:16;;;;;;;8.98;8.13;;;;;;;;;;5097481;28;20490;-59
2021/06/10 00:12:42;;;;;;;9.32;8.40;;;;;;;;;;5097324;28;20430;-59
2021/06/10 00:15:12;;;;;;;10.40;8.05;;;;;;;;;;5097283;28;20099;-59
2021/06/10 00:17:38;;;;;;;9.55;8.63;;;;;;;;;;5096874;28;20035;-59
2021/06/10 00:20:06;;;;;;;10.52;7.95;;;;;;;;;;5097689;28;20051;-60
2021/06/10 00:22:32;;;;;;;10.02;8.80;;;;;;;;;;5096653;28;20016;-59
2021/06/10 00:24:58;;;;;;;9.63;8.57;;;;;;;;;;5097333;28;20035;-59
2021/06/10 00:27:24;;;;;;;8.13;7.32;;;;;;;;;;5097692;28;20047;-59
2021/06/10 00:29:50;;;;;;;10.40;8.82;;;;;;;;;;5097456;28;20036;-59
2021/06/10 00:32:19;;;;;;;9.50;8.35;;;;;;;;;;5097547;28;20404;-59
2021/06/10 00:34:45;;;;;;;11.90;8.00;;;;;;;;;;5096884;28;20090;-59
2021/06/10 00:37:12;;;;;;;10.73;8.27;;;;;;;;;;5096849;28;20023;-59
2021/06/10 00:39:38;;;;;;;9.65;8.63;;;;;;;;;;5097086;28;20123;-60
2021/06/10 00:42:04;;;;;;;8.55;7.70;;;;;;;;;;5096721;28;20028;-59
2021/06/10 00:44:31;;;;;;;9.82;8.82;;;;;;;;;;5097200;28;20077;-60
2021/06/10 00:46:57;;;;;;;8.40;7.55;;;;;;;;;;5096395;28;20027;-59
2021/06/10 00:49:23;;;;;;;9.15;7.70;;;;;;;;;;5096582;28;20035;-60
2021/06/10 00:51:49;;;;;;;9.77;8.77;;;;;;;;;;5096837;28;20037;-60
2021/06/10 00:54:15;;;;;;;9.80;8.77;;;;;;;;;;5095264;28;20036;-59
2021/06/10 00:56:41;;;;;;;10.38;9.32;;;;;;;;;;5096392;28;20027;-59
2021/06/10 00:59:08;;;;;;;9.63;8.65;;;;;;;;;;5096147;28;20031;-60
2021/06/10 01:01:33;;;;;;;12.18;8.98;;;;;;;;;;5096421;28;20032;-59
2021/06/10 01:04:00;;;;;;;9.90;8.95;;;;;;;;;;5096348;28;20027;-59
2021/06/10 01:06:44;;;;;;;9.82;8.88;;;;;;;;;;5096136;28;20121;-59
2021/06/10 01:09:13;;;;;;;10.68;9.57;;;;;;;;;;5095303;28;20448;-59
2021/06/10 01:11:39;;;;;;;9.40;8.50;;;;;;;;;;5096259;28;20070;-59
2021/06/10 01:14:09;;;;;;;9.85;8.70;;;;;;;;;;5096155;28;20032;-59
2021/06/10 01:16:35;;;;;;;;;;;;;;;;;;5096825;28;20110;-59
2021/06/10 01:19:02;;;;;;;9.38;8.48;;;;;;;;;;5096054;28;19935;-60
2021/06/10 01:21:29;;;;;;;9.90;8.90;;;;;;;;;;5095561;28;20038;-59
2021/06/10 01:24:13;;;;;;;14.43;10.80;;;;;;;;;;5095874;28;20081;-60
2021/06/10 01:26:52;;;;;;;9.38;8.48;;;;;;;;;;5095829;28;20028;-60
2021/06/10 01:29:19;;;;;;;9.75;8.68;;;;;;;;;;5094932;28;20025;-60
2021/06/10 01:31:45;;;;;;;9.98;8.70;;;;;;;;;;5096541;28;20565;-59
2021/06/10 01:34:11;;;;;;;10.55;9.32;;;;;;;;;;5095587;28;20062;-60
2021/06/10 01:36:39;;;;;;;9.93;8.93;;;;;;;;;;5094407;28;20024;-60
2021/06/10 01:39:07;;;;;;;10.07;8.75;;;;;;;;;;5094370;28;20063;-60
2021/06/10 01:41:40;;;;;;;11.43;9.23;;;;;;;;;;5095592;28;20060;-60
2021/06/10 01:44:07;;;;;;;11.02;9.93;;;;;;;;;;5095513;28;20079;-60
2021/06/10 01:46:33;;;;;;;11.68;9.02;;;;;;;;;;5095488;28;20028;-60
2021/06/10 01:49:00;;;;;;;10.45;9.30;;;;;;;;;;5095335;28;20461;-60
2021/06/10 01:51:28;;;;;;;11.38;8.95;;;;;;;;;;5095797;28;20059;-59
2021/06/10 01:53:55;;;;;;;9.75;8.85;;;;;;;;;;5095226;28;20031;-59
2021/06/10 01:56:23;;;;;;;10.15;9.15;;;;;;;;;;5094058;28;20025;-60
2021/06/10 01:58:50;;;;;;;10.43;8.63;;;;;;;;;;5095112;28;20024;-59
2021/06/10 02:01:17;;;;;;;9.90;8.90;;;;;;;;;;5095537;28;20028;-59
2021/06/10 02:03:43;;;;;;;10.02;9.02;;;;;;;;;;5093881;28;20069;-59
2021/06/10 02:06:10;;;;;;;9.70;8.68;;;;;;;;;;5094937;28;20059;-59
2021/06/10 02:08:42;;;;;;;9.35;8.38;;;;;;;;;;5095406;28;20120;-59
2021/06/10 02:11:11;;;;;;;10.45;8.82;;;;;;;;;;5095485;28;20032;-59
2021/06/10 02:13:38;;;;;;;10.18;9.23;;;;;;;;;;5094656;28;20073;-59
2021/06/10 02:16:05;;;;;;;10.52;9.43;;;;;;;;;;5094949;28;20502;-59
2021/06/10 02:18:33;;;;;;;10.55;8.63;;;;;;;;;;5094913;28;20085;-59
2021/06/10 02:21:00;;;;;;;11.77;9.35;;;;;;;;;;5094878;28;20077;-59
2021/06/10 02:23:26;;;;;;;9.48;8.60;;;;;;;;;;5095479;28;20114;-59
2021/06/10 02:25:52;;;;;;;9.02;8.13;;;;;;;;;;5094055;28;20070;-59
2021/06/10 02:28:18;;;;;;;9.10;7.68;;;;;;;;;;5093432;28;20024;-59
2021/06/10 02:30:44;;;;;;;8.77;7.88;;;;;;;;;;5094506;28;20036;-59
2021/06/10 02:33:11;;;;;;;9.95;8.00;;;;;;;;;;5093350;28;20059;-59
2021/06/10 02:35:37;;;;;;;8.30;6.80;;;;;;;;;;5093319;28;20092;-59
2021/06/10 02:38:03;;;;;;;9.68;8.57;;;;;;;;;;5094585;28;20020;-59
2021/06/10 02:40:40;;;;;;;9.27;8.40;;;;;;;;;;5094437;28;20043;-59
2021/06/10 02:43:10;;;;;;;9.93;8.80;;;;;;;;;;5094059;28;20028;-59
2021/06/10 02:45:36;;;;;;;12.00;7.95;;;;;;;;;;5094402;28;20051;-59
2021/06/10 02:48:03;;;;;;;10.30;8.43;;;;;;;;;;5094574;28;20032;-59
2021/06/10 02:50:30;;;;;;;10.68;8.23;;;;;;;;;;5094469;28;20028;-59
2021/06/10 02:52:57;;;;;;;10.05;9.10;;;;;;;;;;5094441;28;20024;-59
2021/06/10 02:55:27;;;;;;;9.55;8.68;;;;;;;;;;5093001;28;20031;-59
2021/06/10 02:57:54;;;;;;;10.40;8.73;;;;;;;;;;5094275;28;20024;-59
2021/06/10 03:00:21;;;;;;;11.85;9.25;;;;;;;;;;5094669;28;20066;-59
2021/06/10 03:02:49;;;;;;;10.32;8.93;;;;;;;;;;5092893;28;20028;-59
2021/06/10 03:05:15;;;;;;;10.10;9.02;;;;;;;;;;5094337;28;20104;-59
2021/06/10 03:07:42;;;;;;;10.88;9.88;;;;;;;;;;5093869;28;20346;-59
2021/06/10 03:10:09;;;;;;;8.65;7.80;;;;;;;;;;5092459;28;20044;-59
2021/06/10 03:12:36;;;;;;;9.85;8.85;;;;;;;;;;5094734;28;20032;-59
2021/06/10 03:15:03;;;;;;;10.27;9.20;;;;;;;;;;5093686;28;20545;-59
2021/06/10 03:17:29;;;;;;;10.88;9.80;;;;;;;;;;5093528;28;20056;-59
2021/06/10 03:19:56;;;;;;;11.40;9.25;;;;;;;;;;5094111;28;20032;-59
2021/06/10 03:22:25;;;;;;;9.75;8.85;;;;;;;;;;5093955;28;20373;-59
2021/06/10 03:24:52;;;;;;;10.77;9.68;;;;;;;;;;5094049;28;20465;-59
2021/06/10 03:27:18;;;;;;;10.57;9.45;;;;;;;;;;5093812;28;20024;-59
2021/06/10 03:29:44;;;;;;;11.13;9.98;;;;;;;;;;5093332;28;20078;-59
2021/06/10 03:32:10;;;;;;;11.65;9.70;;;;;;;;;;5093860;28;20114;-59
2021/06/10 03:34:37;;;;;;;10.60;9.50;;;;;;;;;;5092501;28;20049;-59
2021/06/10 03:37:04;;;;;;;11.02;9.90;;;;;;;;;;5092464;28;20032;-59
2021/06/10 03:39:31;;;;;;;13.07;9.23;;;;;;;;;;5094235;28;20016;-59
2021/06/10 03:41:58;;;;;;;9.63;8.73;;;;;;;;;;5093054;28;20034;-59
2021/06/10 03:44:25;;;;;;;13.57;9.85;;;;;;;;;;5094035;28;20032;-60
2021/06/10 03:46:51;;;;;;;10.20;9.07;;;;;;;;;;5094450;28;20353;-59
2021/06/10 03:49:17;;;;;;;10.27;9.27;;;;;;;;;;5093692;28;20429;-60
2021/06/10 03:51:48;;;;;;;9.77;8.88;;;;;;;;;;5093598;28;20515;-60
2021/06/10 03:54:14;;;;;;;11.10;8.57;;;;;;;;;;5092950;28;20024;-59
2021/06/10 03:56:40;;;;;;;12.68;9.48;;;;;;;;;;5093604;28;20028;-59
2021/06/10 03:59:09;;;;;;;11.50;9.43;;;;;;;;;;5093556;28;20052;-59
2021/06/10 04:01:35;;;;;;;10.27;9.27;;;;;;;;;;5093650;28;20032;-59
2021/06/10 04:04:01;;;;;;;11.20;10.02;;;;;;;;;;5092274;28;20024;-59
2021/06/10 04:06:33;;;;;;;11.23;9.85;;;;;;;;;;5094281;28;20021;-60
2021/06/10 04:09:01;;;;;;;11.23;9.88;;;;;;;;;;5093551;28;20484;-59
2021/06/10 04:11:27;;;;;;;10.50;9.48;;;;;;;;;;5093844;28;20043;-59
2021/06/10 04:13:53;;;;;;;11.35;10.25;;;;;;;;;;5093707;28;20141;-60
2021/06/10 04:16:19;;;;;;;15.70;9.80;;;;;;;;;;5093458;28;20058;-60
2021/06/10 04:18:45;;;;;;;10.60;9.50;;;;;;;;;;5093415;28;20024;-60
2021/06/10 04:21:14;;;;;;;12.55;10.90;;;;;;;;;;5093698;28;20035;-60
2021/06/10 04:23:39;;;;;;;11.65;10.18;;;;;;;;;;5093538;28;20074;-60
2021/06/10 04:26:06;;;;;;;10.20;9.23;;;;;;;;;;5092992;28;20032;-60
2021/06/10 04:28:32;;;;;;;10.77;9.13;;;;;;;;;;5093503;28;20032;-60
2021/06/10 04:31:00;;;;;;;11.05;9.95;;;;;;;;;;5096941;28;20036;-60
2021/06/10 04:33:27;;;;;;;13.50;9.57;;;;;;;;;;5097492;28;20035;-59
2021/06/10 04:35:53;;;;;;;11.07;9.38;;;;;;;;;;5095584;28;20058;-59
2021/06/10 04:38:19;;;;;;;11.32;10.07;;;;;;;;;;5096808;28;20028;-59
2021/06/10 04:40:45;;;;;;;10.70;9.57;;;;;;;;;;5097377;28;20036;-59
2021/06/10 04:43:14;;;;;;;10.48;9.40;;;;;;;;;;5096769;28;20408;-59
2021/06/10 04:45:40;;;;;;;13.70;9.15;;;;;;;;;;5095371;28;20020;-59
2021/06/10 04:48:10;;;;;;;10.38;9.30;;;;;;;;;;5096907;28;20020;-59
2021/06/10 04:50:36;;;;;;;11.60;9.55;;;;;;;;;;5096436;28;20036;-59
2021/06/10 04:53:03;;;;;;;10.15;9.10;;;;;;;;;;5096824;28;20119;-60
2021/06/10 04:55:29;;;;;;;9.18;8.35;;;;;;;;;;5096823;28;20421;-59
2021/06/10 04:57:55;;;;;;;10.60;9.48;;;;;;;;;;5096477;28;20031;-59
2021/06/10 05:00:22;;;;;;;10.13;9.18;;;;;;;;;;5096191;28;20362;-59
2021/06/10 05:02:48;;;;;;;9.73;8.63;;;;;;;;;;5096637;28;20024;-59
2021/06/10 05:05:14;;;;;;;10.10;8.98;;;;;;;;;;5096379;28;20046;-59
2021/06/10 05:07:40;;;;;;;11.95;9.35;;;;;;;;;;5095992;28;20031;-59
2021/06/10 05:10:06;;;;;;;10.25;8.68;;;;;;;;;;5095625;28;20546;-60
2021/06/10 05:12:32;;;;;;;10.15;9.07;;;;;;;;;;5096468;28;20016;-59
2021/06/10 05:14:58;;;;;;;10.10;8.90;;;;;;;;;;5096117;28;20024;-60
2021/06/10 05:17:25;;;;;;;10.15;9.05;;;;;;;;;;5096099;28;20205;-59
2021/06/10 05:19:51;;;;;;;11.20;9.25;;;;;;;;;;5096010;28;20081;-59
2021/06/10 05:22:17;;;;;;;9.88;8.82;;;;;;;;;;5095364;28;20492;-59
2021/06/10 05:24:43;;;;;;;11.77;9.00;;;;;;;;;;5095957;28;20024;-59
2021/06/10 05:27:11;;;;;;;10.07;9.07;;;;;;;;;;5095608;28;20477;-59
2021/06/10 05:29:38;;;;;;;10.80;9.18;;;;;;;;;;5094882;28;20024;-59
2021/06/10 05:32:04;;;;;;;10.38;8.45;;;;;;;;;;5095838;28;20016;-59
2021/06/10 05:34:30;;;;;;;11.38;8.10;;;;;;;;;;5096440;28;20019;-59
2021/06/10 05:36:59;;;;;;;11.45;8.60;;;;;;;;;;5095518;28;20402;-59
2021/06/10 05:39:26;;;;;;;9.80;8.80;;;;;;;;;;5095600;28;20016;-60
2021/06/10 05:41:53;;;;;;;14.68;8.23;;;;;;;;;;5095550;28;20457;-59
2021/06/10 05:44:19;;;;;;;11.00;8.30;;;;;;;;;;5095546;28;20019;-59
2021/06/10 05:46:48;;;;;;;12.73;8.55;;;;;;;;;;5095532;28;20016;-59
2021/06/10 05:49:14;;;;;;;8.77;7.88;;;;;;;;;;5095078;28;20484;-59
2021/06/10 05:51:40;;;;;;;14.57;8.73;;;;;;;;;;5095698;28;20028;-60
2021/06/10 05:54:06;;;;;;;9.52;8.52;;;;;;;;;;5095263;28;20028;-59
2021/06/10 05:56:32;;;;;;;8.57;7.78;;;;;;;;;;5095820;28;20069;-59
2021/06/10 05:58:58;;;;;;;8.68;7.88;;;;;;;;;;5095222;28;20016;-59
2021/06/10 06:01:24;;;;;;;9.23;8.43;;;;;;;;;;5094867;28;20543;-59
2021/06/10 06:03:50;;;;;;;12.23;8.68;;;;;;;;;;5093707;28;20120;-59
2021/06/10 06:06:18;;;;;;;10.27;7.60;;;;;;;;;;5095841;28;20020;-59
2021/06/10 06:08:44;;;;;;;9.70;8.70;;;;;;;;;;5094431;28;20500;-60
2021/06/10 06:11:11;;;;;;;9.15;8.25;;;;;;;;;;5095539;28;20032;-59
2021/06/10 06:16:18;;;;;;;8.07;7.35;;;;;;;;;;5095001;28;20067;-59
2021/06/10 06:18:45;;;;;;;9.10;7.85;;;;;;;;;;5095123;28;20047;-59
2021/06/10 06:21:12;;;;;;;8.65;7.63;;;;;;;;;;5095140;28;20540;-59
2021/06/10 06:23:39;;;;;;;8.73;7.90;;;;;;;;;;5094807;28;20024;-60
2021/06/10 06:26:05;;;;;;;8.77;6.95;;;;;;;;;;5095077;28;20050;-60
2021/06/10 06:28:31;;;;;;;8.75;7.35;;;;;;;;;;5094717;28;20028;-59
2021/06/10 06:30:57;;;;;;;10.60;8.27;;;;;;;;;;5095418;28;20024;-60
2021/06/10 06:33:23;;;;;;;8.38;7.43;;;;;;;;;;5094636;28;20020;-59
2021/06/10 06:35:49;;;;;;;8.77;7.25;;;;;;;;;;5094325;28;20012;-60
2021/06/10 06:38:15;;;;;;;7.70;7.00;;;;;;;;;;5094449;28;20035;-60
2021/06/10 06:40:42;;;;;;;8.25;7.40;;;;;;;;;;5094822;28;20426;-59
2021/06/10 06:43:10;;;;;;;8.98;8.07;;;;;;;;;;5094842;28;20023;-60
2021/06/10 06:45:36;;;;;;;8.32;7.00;;;;;;;;;;5094909;28;20369;-60
2021/06/10 06:48:02;;;;;;;8.45;6.60;;;;;;;;;;5094905;28;20354;-60
2021/06/10 06:50:28;;;;;;;8.05;7.25;;;;;;;;;;5094201;28;20028;-59
2021/06/10 06:52:54;;;;;;;7.63;6.93;;;;;;;;;;5093809;28;20020;-60
2021/06/10 06:55:20;;;;;;;8.73;7.75;;;;;;;;;;5093775;28;20019;-60
2021/06/10 06:57:46;;;;;;;7.95;6.93;;;;;;;;;;5094452;28;20082;-60
2021/06/10 07:00:12;;;;;;;7.97;7.18;;;;;;;;;;5094210;28;20089;-60
2021/06/10 07:02:38;;;;;;;7.50;6.80;;;;;;;;;;5095008;28;20016;-60
2021/06/10 07:05:05;;;;;;;8.23;6.93;;;;;;;;;;5094150;28;20028;-60
2021/06/10 07:07:31;;;;;;;7.60;6.40;;;;;;;;;;5094289;28;20020;-60
2021/06/10 07:09:58;;;;;;;8.27;6.47;;;;;;;;;;5093768;28;20076;-60
2021/06/10 07:12:24;;;;;;;7.53;6.60;;;;;;;;;;5094759;28;20350;-60
2021/06/10 07:14:50;;;;;;;7.35;6.65;;;;;;;;;;5093968;28;20263;-60
2021/06/10 07:17:16;;;;;;;10.77;7.25;;;;;;;;;;5093896;28;20056;-60
2021/06/10 07:19:42;;;;;;;7.35;6.60;;;;;;;;;;5093940;28;20133;-60
2021/06/10 07:22:10;;;;;;;8.73;7.82;;;;;;;;;;5094633;28;20024;-60
2021/06/10 07:24:36;;;;;;;7.88;7.18;;;;;;;;;;5093110;28;20361;-60
2021/06/10 07:27:02;;;;;;;8.00;7.10;;;;;;;;;;5094113;28;20099;-60
2021/06/10 07:29:28;;;;;;;8.68;7.72;;;;;;;;;;5093806;28;20048;-60
2021/06/10 07:31:54;;;;;;;11.10;8.05;;;;;;;;;;5093753;28;20024;-60
2021/06/10 07:34:20;;;;;;;12.77;7.25;;;;;;;;;;5093830;28;20093;-60
2021/06/10 07:36:46;;;;;;;9.98;7.32;;;;;;;;;;5093677;28;20020;-60
2021/06/10 07:39:16;;;;;;;6.88;6.28;;;;;;;;;;5093680;28;20110;-60
2021/06/10 07:41:42;;;;;;;8.60;7.70;;;;;;;;;;5094046;28;20429;-60
2021/06/10 07:44:08;;;;;;;9.18;8.02;;;;;;;;;;5094227;28;20054;-60
2021/06/10 07:46:34;;;;;;;9.93;8.93;;;;;;;;;;5093666;28;20048;-60
2021/06/10 07:49:01;;;;;;;8.73;7.93;;;;;;;;;;5093316;28;20536;-60
2021/06/10 07:51:27;;;;;;;9.82;8.93;;;;;;;;;;5094222;28;20028;-60
2021/06/10 07:53:53;;;;;;;9.05;7.47;;;;;;;;;;5093717;28;20028;-60
2021/06/10 07:56:19;;;;;;;9.45;8.43;;;;;;;;;;5094048;28;20024;-60
2021/06/10 07:58:45;;;;;;;9.27;7.95;;;;;;;;;;5093290;28;20022;-60
2021/06/10 08:01:11;;;;;;;8.32;7.40;;;;;;;;;;5093725;28;20024;-60
2021/06/10 08:03:38;;;;;;;8.43;7.57;;;;;;;;;;5094834;28;20046;-60
2021/06/10 08:06:05;;;;;;;8.38;7.57;;;;;;;;;;5097175;28;20470;-60
2021/06/10 08:08:31;;;;;;;9.95;7.68;;;;;;;;;;5097024;28;20020;-60
2021/06/10 08:11:00;;;;;;;9.63;8.52;;;;;;;;;;5096952;28;20460;-60
2021/06/10 08:13:26;;;;;;;9.57;7.55;;;;;;;;;;5097127;28;20039;-58
2021/06/10 08:15:52;;;;;;;12.20;9.60;;;;;;;;;;5097383;28;20020;-58
2021/06/10 08:18:19;;;;;;;9.18;8.30;;;;;;;;;;5096954;28;20089;-58
2021/06/10 08:20:45;;;;;;;10.15;8.52;;;;;;;;;;5097655;28;20024;-59
2021/06/10 08:23:12;;;;;;;9.75;8.23;;;;;;;;;;5096978;28;20469;-58
2021/06/10 08:25:43;;;;;;;15.63;8.98;;;;;;;;;;5097558;28;20062;-58
2021/06/10 08:28:09;;;;;;;8.80;7.85;;;;;;;;;;5097416;28;20023;-58
2021/06/10 08:30:35;;;;;;;7.03;6.43;;;;;;;;;;5097047;28;20517;-58
2021/06/10 08:33:01;;;;;;;8.40;7.10;;;;;;;;;;5096914;28;20038;-58
2021/06/10 08:35:27;;;;;;;8.85;7.95;;;;;;;;;;5096154;28;20035;-57
2021/06/10 08:37:53;;;;;;;9.32;8.43;;;;;;;;;;5097208;28;20031;-58
2021/06/10 08:40:19;;;;;;;8.10;7.32;;;;;;;;;;5096737;28;20452;-58
2021/06/10 08:42:46;;;;;;;8.55;7.70;;;;;;;;;;5097012;28;20020;-58
2021/06/10 08:45:13;;;;;;;9.20;7.47;;;;;;;;;;5096702;28;20032;-59
2021/06/10 08:47:40;;;;;;;10.07;8.18;;;;;;;;;;5096448;28;20023;-59
2021/06/10 08:50:06;;;;;;;8.80;7.57;;;;;;;;;;5097014;28;20021;-59
2021/06/10 08:52:33;;;;;;;7.60;6.75;;;;;;;;;;5096716;28;20027;-59
2021/06/10 08:54:59;;;;;;;9.05;8.02;;;;;;;;;;5095468;28;20111;-59
2021/06/10 08:57:25;;;;;;;9.10;7.97;;;;;;;;;;5097180;28;20032;-59
2021/06/10 08:59:51;;;;;;;8.18;7.38;;;;;;;;;;5096713;28;20025;-59
2021/06/10 09:02:17;;;;;;;10.40;8.05;;;;;;;;;;5096482;28;20115;-59
2021/06/10 09:04:43;;;;;;;9.63;8.57;;;;;;;;;;5096104;28;20020;-59
2021/06/10 09:07:10;;;;;;;8.82;7.88;;;;;;;;;;5096244;28;20476;-59
2021/06/10 09:09:36;;;;;;;8.98;7.18;;;;;;;;;;5096690;28;20112;-59
2021/06/10 09:12:06;;;;;;;9.35;8.55;;;;;;;;;;5096049;28;20032;-59
2021/06/10 09:14:52;;;;;;;8.50;7.72;;;;;;;;;;5096427;28;20024;-59
2021/06/10 09:17:32;;;;;;;9.45;8.52;;;;;;;;;;5096651;28;20029;-59
2021/06/10 09:19:58;;;;;;;9.83;8.00;;;;;;;;;;5096331;28;20021;-59
2021/06/10 09:22:35;;;;;;;9.52;8.65;;;;;;;;;;5096896;28;20592;-59
2021/06/10 09:25:07;;;;;;;9.82;8.82;;;;;;;;;;5096526;28;20012;-59
2021/06/10 09:27:34;;;;;;;8.02;7.22;;;;;;;;;;5096206;28;20016;-59
2021/06/10 09:30:00;;;;;;;9.00;8.10;;;;;;;;;;5094824;28;20111;-59
2021/06/10 09:32:27;;;;;;;9.98;8.68;;;;;;;;;;5095980;28;20099;-59
2021/06/10 09:35:07;;;;;;;8.85;7.68;;;;;;;;;;5096126;28;20020;-59
2021/06/10 09:37:38;;;;;;;9.15;8.25;;;;;;;;;;5096224;28;20456;-59
2021/06/10 09:40:04;;;;;;;9.13;8.35;;;;;;;;;;5096394;28;20450;-59
2021/06/10 09:42:32;;;;;;;9.73;8.77;;;;;;;;;;5095570;28;20101;-59
2021/06/10 09:45:00;;;;;;;9.60;8.63;;;;;;;;;;5096054;28;20047;-59
2021/06/10 09:47:35;;;;;;;10.52;9.25;;;;;;;;;;5095485;28;20016;-59
2021/06/10 09:50:17;;;;;;;11.88;10.68;;;;;;;;;;5095359;28;20043;-59
2021/06/10 09:52:49;;;;;;;10.50;9.50;;;;;;;;;;5095340;28;20024;-59
2021/06/10 09:55:31;;;;;;;11.05;9.93;;;;;;;;;;5094959;28;20027;-59
2021/06/10 09:58:05;;;;;;;11.32;9.45;;;;;;;;;;5095882;28;20047;-59
2021/06/10 10:00:31;;;;;;;11.27;9.90;;;;;;;;;;5095911;28;20358;-59
2021/06/10 10:02:57;;;;;;;10.43;9.27;;;;;;;;;;5095246;28;20016;-59
2021/06/10 10:05:25;;;;;;;11.25;9.85;;;;;;;;;;5095201;28;20020;-59
2021/06/10 10:07:52;;;;;;;11.10;9.60;;;;;;;;;;5095112;28;20020;-59
2021/06/10 10:10:18;;;;;;;12.07;10.57;;;;;;;;;;5095496;28;20079;-59
2021/06/10 10:12:45;;;;;;;12.98;9.55;;;;;;;;;;5095039;28;20055;-59
2021/06/10 10:15:12;;;;;;;12.23;10.55;;;;;;;;;;5095463;28;20035;-59
2021/06/10 10:17:38;;;;;;;11.55;10.38;;;;;;;;;;5094915;28;20016;-59
2021/06/10 10:20:05;;;;;;;11.20;10.23;;;;;;;;;;5095175;28;20024;-59
2021/06/10 10:22:31;;;;;;;16.42;9.18;;;;;;;;;;5095477;28;20111;-59
2021/06/10 10:25:00;;;;;;;10.60;9.50;;;;;;;;;;5094832;28;20481;-59
2021/06/10 10:27:26;;;;;;;10.77;9.27;;;;;;;;;;5093802;28;20055;-59
2021/06/10 10:29:54;;;;;;;11.57;10.45;;;;;;;;;;5095117;28;20020;-59
2021/06/10 10:32:24;;;;;;;9.77;8.93;;;;;;;;;;5095416;28;20030;-59
2021/06/10 10:34:51;;;;;;;9.77;8.88;;;;;;;;;;5093333;28;20044;-59
2021/06/10 10:37:26;;;;;;;10.48;9.48;;;;;;;;;;5094526;28;20035;-59
2021/06/10 10:39:54;;;;;;;18.30;13.45;;;;;;;;;;5094769;28;20122;-59
2021/06/10 10:42:46;;;;;;;12.50;11.07;;;;;;;;;;5095033;28;20020;-59
2021/06/10 10:45:14;;;;;;;11.25;10.15;;;;;;;;;;5091366;28;20122;-59
2021/06/10 10:48:09;;;;;;;9.88;8.98;;;;;;;;;;5094328;28;20099;-59
2021/06/10 10:50:43;;;;;;;11.38;10.38;;;;;;;;;;5092055;28;20040;-59
2021/06/10 10:53:14;;;;;;;10.63;9.63;;;;;;;;;;5094221;28;20028;-59
2021/06/10 10:55:41;;;;;;;11.88;10.77;;;;;;;;;;5094668;28;20064;-59
2021/06/10 10:58:17;;;;;;;10.90;10.00;;;;;;;;;;5094287;28;20111;-59
2021/06/10 11:00:43;;;;;;;12.00;10.85;;;;;;;;;;5094197;28;20089;-59
2021/06/10 11:03:17;;;;;;;12.05;10.95;;;;;;;;;;5092915;28;20108;-59
2021/06/10 11:05:43;;;;;;;11.95;10.43;;;;;;;;;;5094137;28;20023;-59
2021/06/10 11:08:10;;;;;;;14.25;12.48;;;;;;;;;;5094888;28;20479;-59
2021/06/10 11:10:39;;;;;;;12.13;10.93;;;;;;;;;;5094205;28;20178;-59
2021/06/10 11:13:24;;;;;;;12.18;10.90;;;;;;;;;;5094549;28;20366;-59
2021/06/10 11:15:55;;;;;;;13.85;11.32;;;;;;;;;;5093870;28;20016;-59
2021/06/10 11:18:40;;;;;;;11.98;10.77;;;;;;;;;;5094265;28;20027;-59
2021/06/10 11:21:07;;;;;;;13.05;11.73;;;;;;;;;;5093881;28;20062;-59
2021/06/10 11:23:33;;;;;;;12.32;11.20;;;;;;;;;;5093933;28;20088;-59
2021/06/10 11:26:02;;;;;;;11.57;10.52;;;;;;;;;;5093949;28;20107;-59
2021/06/10 11:28:30;;;;;;;10.80;9.68;;;;;;;;;;5094373;28;20031;-59
2021/06/10 11:31:16;;;;;;;11.48;10.32;;;;;;;;;;5094164;28;20028;-59
2021/06/10 11:33:42;;;;;;;9.68;8.75;;;;;;;;;;5094394;28;20020;-59
2021/06/10 11:36:09;;;;;;;11.25;10.15;;;;;;;;;;5093766;28;20027;-59
2021/06/10 11:38:49;;;;;;;11.77;10.68;;;;;;;;;;5095376;28;20369;-59
2021/06/10 11:41:16;;;;;;;12.68;11.60;;;;;;;;;;5096890;28;20059;-59
2021/06/10 11:43:44;;;;;;;11.68;10.57;;;;;;;;;;5097941;28;20020;-59
2021/06/10 11:46:14;;;;;;;13.93;12.63;;;;;;;;;;5097709;28;20465;-59
2021/06/10 11:48:41;;;;;;;10.27;9.27;;;;;;;;;;5097824;28;20374;-59
2021/06/10 11:51:08;;;;;;;11.60;10.35;;;;;;;;;;5097659;28;20162;-59
2021/06/10 11:53:34;;;;;;;12.57;11.25;;;;;;;;;;5098147;28;20060;-59
2021/06/10 11:56:00;;;;;;;13.80;11.82;;;;;;;;;;5097717;28;20393;-59
2021/06/10 11:58:28;;;;;;;11.75;10.65;;;;;;;;;;5097643;28;20031;-59
2021/06/10 12:00:54;;;;;;;12.25;11.20;;;;;;;;;;5097574;28;20127;-59
2021/06/10 12:03:20;;;;;;;10.63;9.63;;;;;;;;;;5097481;28;20020;-59
2021/06/10 12:05:49;;;;;;;11.40;10.40;;;;;;;;;;5097514;28;20024;-59
2021/06/10 12:08:17;;;;;;;11.88;10.82;;;;;;;;;;5097357;28;20050;-59
2021/06/10 12:10:51;;;;;;;11.07;9.95;;;;;;;;;;5097484;28;20054;-59
2021/06/10 12:13:26;;;;;;;10.57;9.52;;;;;;;;;;5098269;28;20127;-60
2021/06/10 12:15:52;;;;;;;9.88;8.98;;;;;;;;;;5097904;28;20077;-59
2021/06/10 12:18:19;;;;;;;10.15;9.25;;;;;;;;;;5097026;28;20028;-59
2021/06/10 12:20:46;;;;;;;9.43;8.55;;;;;;;;;;5097996;28;20047;-59
2021/06/10 12:23:15;;;;;;;12.30;9.63;;;;;;;;;;5097176;28;20020;-59
2021/06/10 12:25:41;;;;;;;9.75;8.85;;;;;;;;;;5095979;28;20384;-59
2021/06/10 12:28:07;;;;;;;10.48;9.57;;;;;;;;;;5097034;28;20023;-59
2021/06/10 12:30:40;;;;;;;10.70;9.70;;;;;;;;;;5097287;28;20032;-59
2021/06/10 12:33:13;;;;;;;10.88;9.85;;;;;;;;;;5096688;28;20479;-59
2021/06/10 12:35:39;;;;;;;11.52;10.32;;;;;;;;;;5097283;28;20024;-59
2021/06/10 12:38:05;;;;;;;10.32;9.45;;;;;;;;;;5097176;28;20454;-59
2021/06/10 12:40:38;;;;;;;12.23;11.02;;;;;;;;;;5097265;28;20124;-59
2021/06/10 12:43:08;;;;;;;11.07;10.07;;;;;;;;;;5097097;28;20057;-60
2021/06/10 12:45:34;;;;;;;10.63;9.55;;;;;;;;;;5096750;28;20031;-60
2021/06/10 12:48:00;;;;;;;10.80;9.77;;;;;;;;;;5097182;28;20118;-60
2021/06/10 12:50:29;;;;;;;10.15;9.27;;;;;;;;;;5095539;28;20028;-60
2021/06/10 12:52:55;;;;;;;11.20;9.65;;;;;;;;;;5096898;28;20107;-60
2021/06/10 12:55:28;;;;;;;10.48;9.27;;;;;;;;;;5096254;28;20508;-60
2021/06/10 12:57:58;;;;;;;10.77;9.55;;;;;;;;;;5096194;28;20032;-60
2021/06/10 13:00:32;;;;;;;9.73;8.82;;;;;;;;;;5096240;28;20042;-60
2021/06/10 13:03:10;;;;;;;8.80;8.00;;;;;;;;;;5095674;28;20458;-60
2021/06/10 13:05:38;;;;;;;9.85;8.55;;;;;;;;;;5096838;28;20043;-60
2021/06/10 13:08:04;;;;;;;8.63;7.82;;;;;;;;;;5096380;28;20173;-60
2021/06/10 13:10:43;;;;;;;8.57;7.68;;;;;;;;;;5096799;28;20052;-60
2021/06/10 13:13:10;;;;;;;8.57;7.75;;;;;;;;;;5096520;28;20031;-60
2021/06/10 13:15:40;;;;;;;10.45;7.57;;;;;;;;;;5096082;28;20016;-60
2021/06/10 13:18:07;;;;;;;10.13;9.23;;;;;;;;;;5096117;28;20031;-60
2021/06/10 13:20:45;;;;;;;10.68;9.57;;;;;;;;;;5095895;28;20503;-60
2021/06/10 13:23:12;;;;;;;9.20;8.25;;;;;;;;;;5094756;28;20032;-59
2021/06/10 13:25:38;;;;;;;9.35;8.45;;;;;;;;;;5096236;28;20020;-59
2021/06/10 13:28:11;;;;;;;10.10;9.10;;;;;;;;;;5096058;28;20384;-60
2021/06/10 13:30:37;;;;;;;9.15;8.32;;;;;;;;;;5095839;28;20032;-59
2021/06/10 13:33:04;;;;;;;7.97;7.28;;;;;;;;;;5094845;28;20061;-59
2021/06/10 13:35:37;;;;;;;8.50;7.80;;;;;;;;;;5095722;28;20028;-59
2021/06/10 13:38:03;;;;;;;8.88;8.07;;;;;;;;;;5095654;28;20542;-59
2021/06/10 13:40:29;;;;;;;9.05;7.47;;;;;;;;;;5096155;28;20067;-59
2021/06/10 13:42:55;;;;;;;8.23;7.28;;;;;;;;;;5095993;28;20149;-59
2021/06/10 13:45:22;;;;;;;9.27;8.35;;;;;;;;;;5095931;28;20023;-59
2021/06/10 13:47:48;;;;;;;8.73;7.82;;;;;;;;;;5095745;28;20027;-59
2021/06/10 13:50:14;;;;;;;8.30;7.50;;;;;;;;;;5095224;28;20028;-59
2021/06/10 13:52:40;;;;;;;7.88;7.18;;;;;;;;;;5095943;28;20092;-59
2021/06/10 13:55:07;;;;;;;7.60;6.85;;;;;;;;;;5095341;28;20016;-59
2021/06/10 13:57:33;;;;;;;6.70;6.00;;;;;;;;;;5095320;28;20114;-59
2021/06/10 14:00:00;;;;;;;6.65;6.05;;;;;;;;;;5095141;28;20137;-59
2021/06/10 14:02:27;;;;;;;6.65;6.00;;;;;;;;;;5094981;28;20111;-59
2021/06/10 14:04:53;;;;;;;5.95;5.35;;;;;;;;;;5095988;28;20039;-59
2021/06/10 14:07:19;;;;;;;6.10;5.50;;;;;;;;;;5095109;28;20024;-59
2021/06/10 14:09:45;;;;;;;7.63;5.43;;;;;;;;;;5095371;28;20079;-59
2021/06/10 14:12:11;;;;;;;6.25;5.65;;;;;;;;;;5095000;28;20369;-59
2021/06/10 14:14:38;;;;;;;6.07;5.25;;;;;;;;;;5094929;28;20465;-59
2021/06/10 14:17:05;;;;;;;5.95;4.97;;;;;;;;;;5095137;28;20073;-59
2021/06/10 14:19:31;;;;;;;5.97;5.38;;;;;;;;;;5094525;28;20473;-59
2021/06/10 14:21:57;;;;;;;5.88;5.20;;;;;;;;;;5094980;28;20139;-59
2021/06/10 14:24:23;;;;;;;5.32;4.82;;;;;;;;;;5094810;28;20369;-59
2021/06/10 14:26:49;;;;;;;5.13;4.68;;;;;;;;;;5095040;28;20024;-59
2021/06/10 14:29:40;;;;;;;6.25;5.65;;;;;;;;;;5094685;28;20024;-59
2021/06/10 14:32:23;;;;;;;5.70;5.10;;;;;;;;;;5094701;28;20373;-59
2021/06/10 14:34:50;;;;;;;5.32;4.82;;;;;;;;;;5095252;28;20331;-59
2021/06/10 14:37:17;;;;;;;5.72;4.78;;;;;;;;;;5094533;28;20396;-59
2021/06/10 14:39:43;;;;;;;8.70;5.93;;;;;;;;;;5094912;28;20358;-59
2021/06/10 14:42:09;;;;;;;5.45;4.90;;;;;;;;;;5094969;28;20085;-59